sensor_id;sensor_type;location;lat;lon;timestamp;pressure;altitude;pressure_sealevel;temperature;humidity
70690;BME280;58267;51.156;17.044;2023-07-13T00:01:42;99866.48;;;24.57;42.23
70690;BME280;58267;51.156;17.044;2023-07-13T00:04:08;99859.71;;;24.37;42.17
70690;BME280;58267;51.156;17.044;2023-07-13T00:06:33;99851.66;;;24.56;41.91
70690;BME280;58267;51.156;17.044;2023-07-13T00:08:58;99852.58;;;24.58;41.70
70690;BME280;58267;51.156;17.044;2023-07-13T00:11:23;99855.11;;;24.60;42.17
70690;BME280;58267;51.156;17.044;2023-07-13T00:13:48;99849.66;;;24.15;42.08
70690;BME280;58267;51.156;17.044;2023-07-13T00:16:14;99851.37;;;24.19;42.16
70690;BME280;58267;51.156;17.044;2023-07-13T00:18:39;99846.77;;;24.38;41.86
70690;BME280;58267;51.156;17.044;2023-07-13T00:21:04;99840.40;;;24.17;42.13
70690;BME280;58267;51.156;17.044;2023-07-13T00:23:29;99842.11;;;24.57;42.38
70690;BME280;58267;51.156;17.044;2023-07-13T00:25:54;99842.82;;;24.40;42.20
70690;BME280;58267;51.156;17.044;2023-07-13T00:28:20;99849.27;;;24.75;42.13
70690;BME280;58267;51.156;17.044;2023-07-13T00:30:46;99853.70;;;24.35;41.98
70690;BME280;58267;51.156;17.044;2023-07-13T00:33:11;99847.72;;;24.06;42.35
70690;BME280;58267;51.156;17.044;2023-07-13T00:35:36;99842.13;;;24.03;42.42
70690;BME280;58267;51.156;17.044;2023-07-13T00:38:01;99845.55;;;23.80;42.83
70690;BME280;58267;51.156;17.044;2023-07-13T00:40:26;99843.59;;;24.08;42.17
70690;BME280;58267;51.156;17.044;2023-07-13T00:42:52;99843.76;;;24.45;41.93
70690;BME280;58267;51.156;17.044;2023-07-13T00:47:43;99851.24;;;24.08;42.08
70690;BME280;58267;51.156;17.044;2023-07-13T00:50:09;99856.73;;;24.06;42.47
70690;BME280;58267;51.156;17.044;2023-07-13T00:52:33;99860.32;;;24.48;42.29
70690;BME280;58267;51.156;17.044;2023-07-13T00:54:58;99866.18;;;24.30;42.51
70690;BME280;58267;51.156;17.044;2023-07-13T00:57:24;99867.87;;;24.56;42.48
70690;BME280;58267;51.156;17.044;2023-07-13T00:59:52;99881.35;;;23.97;42.28
70690;BME280;58267;51.156;17.044;2023-07-13T01:02:14;99885.32;;;24.31;41.80
70690;BME280;58267;51.156;17.044;2023-07-13T01:04:40;99890.45;;;24.25;41.94
70690;BME280;58267;51.156;17.044;2023-07-13T01:07:05;99887.41;;;24.66;41.67
70690;BME280;58267;51.156;17.044;2023-07-13T01:09:30;99888.15;;;24.44;41.71
70690;BME280;58267;51.156;17.044;2023-07-13T01:11:55;99883.15;;;24.48;41.65
70690;BME280;58267;51.156;17.044;2023-07-13T01:14:21;99874.76;;;24.46;41.66
70690;BME280;58267;51.156;17.044;2023-07-13T01:16:47;99867.74;;;24.02;42.22
70690;BME280;58267;51.156;17.044;2023-07-13T01:19:21;99866.06;;;24.33;42.39
70690;BME280;58267;51.156;17.044;2023-07-13T01:21:37;99863.62;;;23.89;42.32
70690;BME280;58267;51.156;17.044;2023-07-13T01:24:03;99858.65;;;23.80;42.55
70690;BME280;58267;51.156;17.044;2023-07-13T01:26:28;99856.37;;;23.18;42.91
70690;BME280;58267;51.156;17.044;2023-07-13T01:28:53;99855.90;;;23.37;42.84
70690;BME280;58267;51.156;17.044;2023-07-13T01:31:18;99853.77;;;23.02;43.45
70690;BME280;58267;51.156;17.044;2023-07-13T01:33:44;99850.90;;;23.28;43.49
70690;BME280;58267;51.156;17.044;2023-07-13T01:36:10;99850.36;;;23.03;43.94
70690;BME280;58267;51.156;17.044;2023-07-13T01:38:35;99849.49;;;22.99;43.98
70690;BME280;58267;51.156;17.044;2023-07-13T01:41:00;99852.03;;;23.25;43.54
70690;BME280;58267;51.156;17.044;2023-07-13T01:43:26;99848.39;;;23.47;43.26
70690;BME280;58267;51.156;17.044;2023-07-13T01:45:51;99843.91;;;23.23;43.39
70690;BME280;58267;51.156;17.044;2023-07-13T01:48:16;99836.63;;;23.06;43.66
70690;BME280;58267;51.156;17.044;2023-07-13T01:50:41;99834.74;;;23.22;43.70
70690;BME280;58267;51.156;17.044;2023-07-13T01:53:07;99838.82;;;23.13;43.40
70690;BME280;58267;51.156;17.044;2023-07-13T01:55:33;99845.39;;;23.21;43.20
70690;BME280;58267;51.156;17.044;2023-07-13T01:57:57;99845.76;;;23.04;43.52
70690;BME280;58267;51.156;17.044;2023-07-13T02:00:23;99848.17;;;22.78;44.06
70690;BME280;58267;51.156;17.044;2023-07-13T02:02:49;99849.29;;;22.81;44.03
70690;BME280;58267;51.156;17.044;2023-07-13T02:05:14;99844.48;;;22.84;43.90
70690;BME280;58267;51.156;17.044;2023-07-13T02:07:41;99842.76;;;23.01;44.24
70690;BME280;58267;51.156;17.044;2023-07-13T02:10:05;99839.96;;;22.67;44.36
70690;BME280;58267;51.156;17.044;2023-07-13T02:12:29;99833.80;;;22.93;44.50
70690;BME280;58267;51.156;17.044;2023-07-13T02:14:55;99830.12;;;22.73;44.31
70690;BME280;58267;51.156;17.044;2023-07-13T02:17:21;99826.48;;;22.90;44.29
70690;BME280;58267;51.156;17.044;2023-07-13T02:19:46;99822.36;;;22.85;44.19
70690;BME280;58267;51.156;17.044;2023-07-13T02:22:12;99824.68;;;22.58;44.10
70690;BME280;58267;51.156;17.044;2023-07-13T02:24:37;99822.93;;;22.70;43.79
70690;BME280;58267;51.156;17.044;2023-07-13T02:27:03;99821.13;;;22.78;43.50
70690;BME280;58267;51.156;17.044;2023-07-13T02:29:27;99820.35;;;22.61;43.46
70690;BME280;58267;51.156;17.044;2023-07-13T02:31:53;99813.01;;;23.11;43.31
70690;BME280;58267;51.156;17.044;2023-07-13T02:34:19;99811.56;;;22.79;43.05
70690;BME280;58267;51.156;17.044;2023-07-13T02:36:44;99816.24;;;22.81;42.97
70690;BME280;58267;51.156;17.044;2023-07-13T02:39:09;99813.03;;;22.78;42.85
70690;BME280;58267;51.156;17.044;2023-07-13T02:41:35;99808.46;;;23.07;43.05
70690;BME280;58267;51.156;17.044;2023-07-13T02:44:01;99805.21;;;22.61;43.06
70690;BME280;58267;51.156;17.044;2023-07-13T02:46:25;99805.14;;;22.60;42.90
70690;BME280;58267;51.156;17.044;2023-07-13T02:48:51;99803.68;;;23.06;42.94
70690;BME280;58267;51.156;17.044;2023-07-13T02:51:16;99807.01;;;22.67;43.50
70690;BME280;58267;51.156;17.044;2023-07-13T02:53:41;99809.60;;;22.68;43.52
70690;BME280;58267;51.156;17.044;2023-07-13T02:56:06;99818.93;;;22.76;43.41
70690;BME280;58267;51.156;17.044;2023-07-13T02:58:32;99828.47;;;22.80;43.39
70690;BME280;58267;51.156;17.044;2023-07-13T03:00:57;99835.28;;;22.93;43.52
70690;BME280;58267;51.156;17.044;2023-07-13T03:03:23;99836.22;;;23.01;43.70
70690;BME280;58267;51.156;17.044;2023-07-13T03:05:57;99838.23;;;23.11;43.78
70690;BME280;58267;51.156;17.044;2023-07-13T03:08:14;99840.69;;;23.00;43.99
70690;BME280;58267;51.156;17.044;2023-07-13T03:10:39;99841.45;;;23.08;43.96
70690;BME280;58267;51.156;17.044;2023-07-13T03:13:05;99841.67;;;23.21;43.99
70690;BME280;58267;51.156;17.044;2023-07-13T03:15:30;99845.46;;;23.04;43.88
70690;BME280;58267;51.156;17.044;2023-07-13T03:17:55;99847.31;;;23.11;43.69
70690;BME280;58267;51.156;17.044;2023-07-13T03:20:21;99836.63;;;23.01;43.65
70690;BME280;58267;51.156;17.044;2023-07-13T03:22:46;99833.09;;;23.02;43.56
70690;BME280;58267;51.156;17.044;2023-07-13T03:25:12;99833.33;;;23.23;43.62
70690;BME280;58267;51.156;17.044;2023-07-13T03:27:37;99829.53;;;23.23;42.97
70690;BME280;58267;51.156;17.044;2023-07-13T03:30:03;99825.99;;;23.11;43.21
70690;BME280;58267;51.156;17.044;2023-07-13T03:32:28;99825.31;;;22.96;43.45
70690;BME280;58267;51.156;17.044;2023-07-13T03:34:54;99830.08;;;23.21;43.47
70690;BME280;58267;51.156;17.044;2023-07-13T03:37:19;99837.46;;;22.88;43.61
70690;BME280;58267;51.156;17.044;2023-07-13T03:39:45;99840.75;;;23.14;43.67
70690;BME280;58267;51.156;17.044;2023-07-13T03:42:10;99840.71;;;23.12;43.13
70690;BME280;58267;51.156;17.044;2023-07-13T03:44:35;99843.23;;;22.91;43.48
70690;BME280;58267;51.156;17.044;2023-07-13T03:47:01;99839.09;;;22.76;43.58
70690;BME280;58267;51.156;17.044;2023-07-13T03:49:26;99838.68;;;22.90;43.71
70690;BME280;58267;51.156;17.044;2023-07-13T03:51:52;99830.81;;;23.26;43.50
70690;BME280;58267;51.156;17.044;2023-07-13T03:54:18;99832.06;;;23.08;43.48
70690;BME280;58267;51.156;17.044;2023-07-13T03:56:43;99832.54;;;23.04;43.69
70690;BME280;58267;51.156;17.044;2023-07-13T03:59:09;99832.73;;;23.13;43.72
70690;BME280;58267;51.156;17.044;2023-07-13T04:01:35;99830.61;;;22.67;44.00
70690;BME280;58267;51.156;17.044;2023-07-13T04:04:01;99830.15;;;23.03;43.38
70690;BME280;58267;51.156;17.044;2023-07-13T04:06:29;99838.64;;;23.04;43.61
70690;BME280;58267;51.156;17.044;2023-07-13T04:08:53;99848.78;;;22.80;43.57
70690;BME280;58267;51.156;17.044;2023-07-13T04:11:18;99850.50;;;23.11;43.32
70690;BME280;58267;51.156;17.044;2023-07-13T04:13:43;99858.07;;;22.89;43.55
70690;BME280;58267;51.156;17.044;2023-07-13T04:16:09;99869.40;;;22.68;42.96
70690;BME280;58267;51.156;17.044;2023-07-13T04:18:35;99880.96;;;23.19;42.56
70690;BME280;58267;51.156;17.044;2023-07-13T04:21:01;99897.59;;;23.18;42.93
70690;BME280;58267;51.156;17.044;2023-07-13T04:23:26;99914.69;;;23.08;42.42
70690;BME280;58267;51.156;17.044;2023-07-13T04:25:53;99963.62;;;22.73;42.89
70690;BME280;58267;51.156;17.044;2023-07-13T04:28:18;99977.44;;;21.35;45.30
70690;BME280;58267;51.156;17.044;2023-07-13T04:30:43;99987.89;;;19.35;48.53
70690;BME280;58267;51.156;17.044;2023-07-13T04:33:08;99998.86;;;19.48;47.76
70690;BME280;58267;51.156;17.044;2023-07-13T04:35:34;100019.81;;;19.61;47.39
70690;BME280;58267;51.156;17.044;2023-07-13T04:37:59;100046.80;;;19.77;47.14
70690;BME280;58267;51.156;17.044;2023-07-13T04:40:25;100071.58;;;19.06;48.49
70690;BME280;58267;51.156;17.044;2023-07-13T04:42:49;100108.38;;;18.55;51.10
70690;BME280;58267;51.156;17.044;2023-07-13T04:45:15;100136.60;;;18.61;51.65
70690;BME280;58267;51.156;17.044;2023-07-13T04:47:40;100157.13;;;17.53;53.41
70690;BME280;58267;51.156;17.044;2023-07-13T04:50:06;100178.51;;;18.13;54.00
70690;BME280;58267;51.156;17.044;2023-07-13T04:52:30;100180.53;;;17.99;53.54
70690;BME280;58267;51.156;17.044;2023-07-13T04:54:56;100174.51;;;17.56;54.68
70690;BME280;58267;51.156;17.044;2023-07-13T04:57:21;100173.17;;;17.79;54.06
70690;BME280;58267;51.156;17.044;2023-07-13T04:59:46;100171.26;;;18.53;52.64
70690;BME280;58267;51.156;17.044;2023-07-13T05:02:12;100173.23;;;18.56;52.96
70690;BME280;58267;51.156;17.044;2023-07-13T05:04:37;100159.86;;;18.05;52.10
70690;BME280;58267;51.156;17.044;2023-07-13T05:07:03;100150.32;;;18.08;53.10
70690;BME280;58267;51.156;17.044;2023-07-13T05:09:28;100142.44;;;17.77;53.03
70690;BME280;58267;51.156;17.044;2023-07-13T05:11:53;100142.64;;;18.29;52.28
70690;BME280;58267;51.156;17.044;2023-07-13T05:14:18;100139.62;;;18.62;51.12
70690;BME280;58267;51.156;17.044;2023-07-13T05:16:43;100125.25;;;18.57;50.99
70690;BME280;58267;51.156;17.044;2023-07-13T05:19:09;100117.50;;;18.75;50.66
70690;BME280;58267;51.156;17.044;2023-07-13T05:21:34;100117.57;;;18.88;50.40
70690;BME280;58267;51.156;17.044;2023-07-13T05:23:59;100121.12;;;18.78;50.22
70690;BME280;58267;51.156;17.044;2023-07-13T05:26:24;100120.39;;;18.61;50.82
70690;BME280;58267;51.156;17.044;2023-07-13T05:28:49;100103.13;;;19.01;49.95
70690;BME280;58267;51.156;17.044;2023-07-13T05:31:14;100074.07;;;19.25;50.40
70690;BME280;58267;51.156;17.044;2023-07-13T05:33:39;100034.94;;;19.48;50.46
70690;BME280;58267;51.156;17.044;2023-07-13T05:36:05;100010.80;;;19.38;50.64
70690;BME280;58267;51.156;17.044;2023-07-13T05:38:31;100000.26;;;19.49;50.62
70690;BME280;58267;51.156;17.044;2023-07-13T05:40:57;100003.35;;;19.67;50.39
70690;BME280;58267;51.156;17.044;2023-07-13T05:43:22;100018.74;;;19.65;50.16
70690;BME280;58267;51.156;17.044;2023-07-13T05:45:46;100016.30;;;19.87;49.10
70690;BME280;58267;51.156;17.044;2023-07-13T05:48:12;100008.05;;;20.12;48.42
70690;BME280;58267;51.156;17.044;2023-07-13T05:50:37;100007.99;;;20.27;48.44
70690;BME280;58267;51.156;17.044;2023-07-13T05:53:02;100027.50;;;20.26;48.45
70690;BME280;58267;51.156;17.044;2023-07-13T05:55:28;100034.38;;;20.23;48.73
70690;BME280;58267;51.156;17.044;2023-07-13T05:57:53;100019.69;;;20.68;47.44
70690;BME280;58267;51.156;17.044;2023-07-13T06:00:18;99992.73;;;20.74;47.20
70690;BME280;58267;51.156;17.044;2023-07-13T06:02:44;99967.31;;;20.87;47.91
70690;BME280;58267;51.156;17.044;2023-07-13T06:05:09;99965.23;;;20.46;47.32
70690;BME280;58267;51.156;17.044;2023-07-13T06:07:35;99988.67;;;20.93;46.53
70690;BME280;58267;51.156;17.044;2023-07-13T06:10:00;99999.82;;;21.34;45.64
70690;BME280;58267;51.156;17.044;2023-07-13T06:12:25;99995.06;;;20.85;45.12
70690;BME280;58267;51.156;17.044;2023-07-13T06:14:50;99989.30;;;21.20;46.30
70690;BME280;58267;51.156;17.044;2023-07-13T06:17:15;100005.13;;;20.89;47.51
70690;BME280;58267;51.156;17.044;2023-07-13T06:19:41;100021.03;;;21.02;46.46
70690;BME280;58267;51.156;17.044;2023-07-13T06:22:07;100026.68;;;21.29;46.48
70690;BME280;58267;51.156;17.044;2023-07-13T06:24:32;100027.22;;;21.23;46.21
70690;BME280;58267;51.156;17.044;2023-07-13T06:26:57;100024.88;;;21.30;45.47
70690;BME280;58267;51.156;17.044;2023-07-13T06:29:22;100023.40;;;21.37;46.04
70690;BME280;58267;51.156;17.044;2023-07-13T06:31:47;100027.01;;;21.43;45.87
70690;BME280;58267;51.156;17.044;2023-07-13T06:34:12;100032.63;;;21.71;45.85
70690;BME280;58267;51.156;17.044;2023-07-13T06:36:38;100032.02;;;21.88;44.94
70690;BME280;58267;51.156;17.044;2023-07-13T06:39:03;100036.56;;;21.93;45.24
70690;BME280;58267;51.156;17.044;2023-07-13T06:41:28;100051.37;;;21.66;45.80
70690;BME280;58267;51.156;17.044;2023-07-13T06:43:53;100064.04;;;21.69;45.42
70690;BME280;58267;51.156;17.044;2023-07-13T06:46:19;100073.38;;;21.67;45.52
70690;BME280;58267;51.156;17.044;2023-07-13T06:48:43;100085.04;;;20.73;46.75
70690;BME280;58267;51.156;17.044;2023-07-13T06:51:09;100093.55;;;20.83;47.02
70690;BME280;58267;51.156;17.044;2023-07-13T06:53:34;100099.43;;;20.28;48.00
70690;BME280;58267;51.156;17.044;2023-07-13T06:55:59;100116.92;;;21.20;46.98
70690;BME280;58267;51.156;17.044;2023-07-13T06:58:24;100127.16;;;21.32;47.79
70690;BME280;58267;51.156;17.044;2023-07-13T07:00:51;100136.08;;;21.31;47.19
70690;BME280;58267;51.156;17.044;2023-07-13T07:03:15;100142.67;;;20.99;47.04
70690;BME280;58267;51.156;17.044;2023-07-13T07:05:40;100144.96;;;21.22;47.00
70690;BME280;58267;51.156;17.044;2023-07-13T07:08:05;100152.14;;;21.05;47.25
70690;BME280;58267;51.156;17.044;2023-07-13T07:10:31;100151.18;;;21.18;47.48
70690;BME280;58267;51.156;17.044;2023-07-13T07:12:56;100162.60;;;21.38;47.10
70690;BME280;58267;51.156;17.044;2023-07-13T07:15:21;100163.43;;;21.82;47.08
70690;BME280;58267;51.156;17.044;2023-07-13T07:17:46;100168.04;;;21.13;46.90
70690;BME280;58267;51.156;17.044;2023-07-13T07:20:12;100173.18;;;21.64;46.87
70690;BME280;58267;51.156;17.044;2023-07-13T07:22:36;100177.73;;;21.54;46.55
70690;BME280;58267;51.156;17.044;2023-07-13T07:25:03;100185.37;;;21.37;47.13
70690;BME280;58267;51.156;17.044;2023-07-13T07:27:27;100190.36;;;21.62;46.82
70690;BME280;58267;51.156;17.044;2023-07-13T07:29:53;100192.12;;;21.72;46.90
70690;BME280;58267;51.156;17.044;2023-07-13T07:32:19;100183.20;;;21.66;46.86
70690;BME280;58267;51.156;17.044;2023-07-13T07:34:44;100143.23;;;21.78;46.30
70690;BME280;58267;51.156;17.044;2023-07-13T07:37:11;100112.19;;;21.77;46.80
70690;BME280;58267;51.156;17.044;2023-07-13T07:39:35;100095.88;;;22.01;46.77
70690;BME280;58267;51.156;17.044;2023-07-13T07:42:00;100081.78;;;21.92;46.66
70690;BME280;58267;51.156;17.044;2023-07-13T07:44:25;100044.64;;;21.43;47.52
70690;BME280;58267;51.156;17.044;2023-07-13T07:46:50;100003.07;;;21.13;48.06
70690;BME280;58267;51.156;17.044;2023-07-13T07:49:16;99986.66;;;21.29;48.35
70690;BME280;58267;51.156;17.044;2023-07-13T07:51:41;99995.63;;;21.63;48.25
70690;BME280;58267;51.156;17.044;2023-07-13T07:54:07;100004.98;;;21.82;47.65
70690;BME280;58267;51.156;17.044;2023-07-13T07:56:32;100008.96;;;21.66;47.20
70690;BME280;58267;51.156;17.044;2023-07-13T07:58:58;100025.15;;;22.43;46.93
70690;BME280;58267;51.156;17.044;2023-07-13T08:01:27;100037.77;;;22.04;45.78
70690;BME280;58267;51.156;17.044;2023-07-13T08:03:49;100047.30;;;22.14;45.63
70690;BME280;58267;51.156;17.044;2023-07-13T08:06:12;100057.55;;;22.77;45.53
70690;BME280;58267;51.156;17.044;2023-07-13T08:08:37;100076.02;;;22.50;45.21
70690;BME280;58267;51.156;17.044;2023-07-13T08:11:04;100080.16;;;21.91;45.81
70690;BME280;58267;51.156;17.044;2023-07-13T08:13:28;100089.52;;;21.99;46.07
70690;BME280;58267;51.156;17.044;2023-07-13T08:15:53;100093.13;;;21.73;46.93
70690;BME280;58267;51.156;17.044;2023-07-13T08:18:19;100105.41;;;21.50;47.28
70690;BME280;58267;51.156;17.044;2023-07-13T08:20:44;100113.14;;;22.12;48.11
70690;BME280;58267;51.156;17.044;2023-07-13T08:23:10;100111.42;;;21.84;46.62
70690;BME280;58267;51.156;17.044;2023-07-13T08:25:34;100115.17;;;21.93;47.96
70690;BME280;58267;51.156;17.044;2023-07-13T08:27:59;100116.23;;;21.80;47.34
70690;BME280;58267;51.156;17.044;2023-07-13T08:30:25;100121.85;;;21.40;48.09
70690;BME280;58267;51.156;17.044;2023-07-13T08:32:50;100123.50;;;21.60;47.75
70690;BME280;58267;51.156;17.044;2023-07-13T08:35:16;100128.63;;;22.05;47.52
70690;BME280;58267;51.156;17.044;2023-07-13T08:37:41;100137.22;;;22.48;40.57
70690;BME280;58267;51.156;17.044;2023-07-13T08:40:09;100146.04;;;23.21;40.14
70690;BME280;58267;51.156;17.044;2023-07-13T08:42:36;100152.48;;;23.29;40.05
70690;BME280;58267;51.156;17.044;2023-07-13T08:45:04;100155.44;;;23.71;39.68
70690;BME280;58267;51.156;17.044;2023-07-13T08:47:23;100157.18;;;24.03;39.13
70690;BME280;58267;51.156;17.044;2023-07-13T08:49:48;100153.72;;;24.16;38.64
70690;BME280;58267;51.156;17.044;2023-07-13T08:52:28;100155.50;;;24.58;38.35
70690;BME280;58267;51.156;17.044;2023-07-13T08:54:43;100153.43;;;24.57;38.36
70690;BME280;58267;51.156;17.044;2023-07-13T08:57:12;100151.71;;;24.77;38.05
70690;BME280;58267;51.156;17.044;2023-07-13T08:59:32;100153.22;;;24.83;38.13
70690;BME280;58267;51.156;17.044;2023-07-13T09:02:05;100157.87;;;25.01;38.01
70690;BME280;58267;51.156;17.044;2023-07-13T09:04:23;100160.62;;;25.10;37.85
70690;BME280;58267;51.156;17.044;2023-07-13T09:06:55;100161.38;;;25.38;37.24
70690;BME280;58267;51.156;17.044;2023-07-13T09:09:19;100157.79;;;25.33;36.63
70690;BME280;58267;51.156;17.044;2023-07-13T09:11:46;100156.74;;;25.56;36.23
70690;BME280;58267;51.156;17.044;2023-07-13T09:14:25;100159.60;;;25.45;36.42
70690;BME280;58267;51.156;17.044;2023-07-13T09:16:29;100164.93;;;25.48;35.70
70690;BME280;58267;51.156;17.044;2023-07-13T09:19:00;100161.72;;;25.37;35.52
70690;BME280;58267;51.156;17.044;2023-07-13T09:21:24;100161.26;;;25.66;35.14
70690;BME280;58267;51.156;17.044;2023-07-13T09:23:45;100158.49;;;25.92;34.94
70690;BME280;58267;51.156;17.044;2023-07-13T09:26:14;100160.20;;;26.04;35.01
70690;BME280;58267;51.156;17.044;2023-07-13T09:28:40;100157.49;;;25.80;34.71
70690;BME280;58267;51.156;17.044;2023-07-13T09:31:04;100159.50;;;26.11;34.31
70690;BME280;58267;51.156;17.044;2023-07-13T09:33:27;100159.45;;;26.25;34.29
70690;BME280;58267;51.156;17.044;2023-07-13T09:35:52;100159.38;;;26.25;34.20
70690;BME280;58267;51.156;17.044;2023-07-13T09:38:18;100156.48;;;26.27;34.20
70690;BME280;58267;51.156;17.044;2023-07-13T09:40:53;100152.96;;;25.94;34.06
70690;BME280;58267;51.156;17.044;2023-07-13T09:43:10;100152.24;;;26.50;33.96
70690;BME280;58267;51.156;17.044;2023-07-13T09:45:33;100155.13;;;26.51;34.22
70690;BME280;58267;51.156;17.044;2023-07-13T09:48:03;100156.36;;;26.13;34.25
70690;BME280;58267;51.156;17.044;2023-07-13T09:50:23;100155.91;;;25.98;34.03
70690;BME280;58267;51.156;17.044;2023-07-13T09:52:49;100158.90;;;26.15;34.02
70690;BME280;58267;51.156;17.044;2023-07-13T09:55:25;100160.64;;;26.31;34.17
70690;BME280;58267;51.156;17.044;2023-07-13T09:57:46;100163.13;;;26.51;33.97
70690;BME280;58267;51.156;17.044;2023-07-13T10:00:05;100163.10;;;26.17;34.28
70690;BME280;58267;51.156;17.044;2023-07-13T10:02:30;100159.13;;;26.27;34.43
70690;BME280;58267;51.156;17.044;2023-07-13T10:04:57;100155.22;;;26.26;34.30
70690;BME280;58267;51.156;17.044;2023-07-13T10:07:22;100156.02;;;26.14;34.59
70690;BME280;58267;51.156;17.044;2023-07-13T10:09:44;100158.39;;;25.54;36.05
70690;BME280;58267;51.156;17.044;2023-07-13T10:12:14;100157.66;;;26.07;34.41
70690;BME280;58267;51.156;17.044;2023-07-13T10:14:35;100157.49;;;26.26;34.68
70690;BME280;58267;51.156;17.044;2023-07-13T10:17:04;100157.40;;;26.23;34.18
70690;BME280;58267;51.156;17.044;2023-07-13T10:19:27;100150.76;;;26.34;34.27
70690;BME280;58267;51.156;17.044;2023-07-13T10:21:53;100160.39;;;26.32;33.70
70690;BME280;58267;51.156;17.044;2023-07-13T10:24:19;100164.14;;;25.75;34.47
70690;BME280;58267;51.156;17.044;2023-07-13T10:26:47;100180.19;;;24.46;36.96
70690;BME280;58267;51.156;17.044;2023-07-13T10:29:10;100180.96;;;24.39;35.95
70690;BME280;58267;51.156;17.044;2023-07-13T10:31:31;100185.57;;;24.42;35.27
70690;BME280;58267;51.156;17.044;2023-07-13T10:33:56;100172.14;;;24.84;35.29
70690;BME280;58267;51.156;17.044;2023-07-13T10:36:30;100170.27;;;24.67;36.70
70690;BME280;58267;51.156;17.044;2023-07-13T10:38:48;100163.07;;;25.45;35.61
70690;BME280;58267;51.156;17.044;2023-07-13T10:41:17;100162.46;;;25.34;35.62
70690;BME280;58267;51.156;17.044;2023-07-13T10:43:41;100164.72;;;25.64;35.14
70690;BME280;58267;51.156;17.044;2023-07-13T10:46:05;100170.59;;;25.52;35.18
70690;BME280;58267;51.156;17.044;2023-07-13T10:48:29;100173.91;;;25.95;35.33
70690;BME280;58267;51.156;17.044;2023-07-13T10:50:55;100170.54;;;26.42;34.22
70690;BME280;58267;51.156;17.044;2023-07-13T10:53:21;100172.84;;;25.76;34.75
70690;BME280;58267;51.156;17.044;2023-07-13T10:58:14;100172.45;;;24.65;35.17
70690;BME280;58267;51.156;17.044;2023-07-13T11:00:44;100173.99;;;24.86;35.42
70690;BME280;58267;51.156;17.044;2023-07-13T11:03:01;100174.09;;;25.45;34.99
70690;BME280;58267;51.156;17.044;2023-07-13T11:05:29;100171.77;;;25.60;35.30
70690;BME280;58267;51.156;17.044;2023-07-13T11:07:55;100166.93;;;25.89;33.96
70690;BME280;58267;51.156;17.044;2023-07-13T11:12:49;100170.91;;;26.43;33.09
70690;BME280;58267;51.156;17.044;2023-07-13T11:15:11;100175.31;;;25.99;32.99
70690;BME280;58267;51.156;17.044;2023-07-13T11:17:36;100172.83;;;25.41;34.10
70690;BME280;58267;51.156;17.044;2023-07-13T11:22:26;100174.58;;;25.53;34.67
70690;BME280;58267;51.156;17.044;2023-07-13T11:24:51;100182.26;;;25.24;35.16
70690;BME280;58267;51.156;17.044;2023-07-13T11:27:25;100172.30;;;25.08;35.85
70690;BME280;58267;51.156;17.044;2023-07-13T11:29:37;100176.73;;;25.02;35.70
70690;BME280;58267;51.156;17.044;2023-07-13T11:34:29;100169.38;;;25.47;35.17
70690;BME280;58267;51.156;17.044;2023-07-13T11:36:52;100168.79;;;25.56;34.95
70690;BME280;58267;51.156;17.044;2023-07-13T11:39:28;100162.90;;;25.28;35.47
70690;BME280;58267;51.156;17.044;2023-07-13T11:41:45;100161.86;;;25.25;35.22
70690;BME280;58267;51.156;17.044;2023-07-13T11:44:13;100162.41;;;25.93;34.84
70690;BME280;58267;51.156;17.044;2023-07-13T11:46:33;100164.35;;;26.29;34.26
70690;BME280;58267;51.156;17.044;2023-07-13T11:48:58;100165.44;;;25.63;34.57
70690;BME280;58267;51.156;17.044;2023-07-13T11:51:25;100163.35;;;26.07;34.05
70690;BME280;58267;51.156;17.044;2023-07-13T11:53:51;100162.63;;;26.26;33.91
70690;BME280;58267;51.156;17.044;2023-07-13T11:56:14;100168.05;;;26.18;34.21
70690;BME280;58267;51.156;17.044;2023-07-13T11:58:38;100169.87;;;26.42;33.03
70690;BME280;58267;51.156;17.044;2023-07-13T12:01:04;100172.31;;;25.88;33.29
70690;BME280;58267;51.156;17.044;2023-07-13T12:03:34;100170.52;;;25.40;33.62
70690;BME280;58267;51.156;17.044;2023-07-13T12:05:59;100173.06;;;26.36;33.28
70690;BME280;58267;51.156;17.044;2023-07-13T12:08:19;100174.17;;;26.71;32.27
70690;BME280;58267;51.156;17.044;2023-07-13T12:10:44;100177.25;;;26.75;31.04
70690;BME280;58267;51.156;17.044;2023-07-13T12:13:09;100176.38;;;26.60;31.97
70690;BME280;58267;51.156;17.044;2023-07-13T12:15:38;100182.56;;;26.52;32.54
70690;BME280;58267;51.156;17.044;2023-07-13T12:18:00;100184.42;;;26.11;32.12
70690;BME280;58267;51.156;17.044;2023-07-13T12:20:26;100180.40;;;26.32;33.09
70690;BME280;58267;51.156;17.044;2023-07-13T12:22:51;100176.02;;;26.53;32.29
70690;BME280;58267;51.156;17.044;2023-07-13T12:25:16;100171.48;;;26.06;30.55
70690;BME280;58267;51.156;17.044;2023-07-13T12:27:40;100166.44;;;25.71;31.93
70690;BME280;58267;51.156;17.044;2023-07-13T12:32:32;100162.54;;;27.37;31.81
70690;BME280;58267;51.156;17.044;2023-07-13T12:35:13;100160.65;;;27.25;30.98
70690;BME280;58267;51.156;17.044;2023-07-13T12:37:21;100166.12;;;25.90;31.73
70690;BME280;58267;51.156;17.044;2023-07-13T12:39:47;100158.57;;;27.14;30.99
70690;BME280;58267;51.156;17.044;2023-07-13T12:42:19;100157.58;;;26.47;30.27
70690;BME280;58267;51.156;17.044;2023-07-13T12:44:41;100161.73;;;26.30;30.98
70690;BME280;58267;51.156;17.044;2023-07-13T12:47:06;100152.85;;;26.90;30.41